createdAt,value
2017-07-30T00:00:31.029Z,-4.05
2017-07-30T00:01:31.168Z,-4.05
2017-07-30T00:02:37.459Z,-4.05
2017-07-30T00:03:32.270Z,-4.05
2017-07-30T00:04:26.289Z,-4.05
2017-07-30T00:05:14.302Z,-4.05
2017-07-30T00:06:03.684Z,-4.05
2017-07-30T00:06:52.348Z,-4.05
2017-07-30T00:07:40.744Z,-4.05
2017-07-30T00:08:28.447Z,-4.05
2017-07-30T00:09:17.720Z,-4.05
2017-07-30T00:10:05.803Z,-4.05
2017-07-30T00:10:53.517Z,-4.05
2017-07-30T00:11:42.650Z,-4.05
2017-07-30T00:12:30.811Z,-4.05
2017-07-30T00:13:18.677Z,-4.05
2017-07-30T00:14:19.719Z,-4.05
2017-07-30T00:15:19.884Z,-4.05
2017-07-30T00:16:25.800Z,-4.05
2017-07-30T00:17:20.954Z,-4.05
2017-07-30T00:18:14.901Z,-4.05
2017-07-30T00:19:15.018Z,-4.05
2017-07-30T00:20:15.102Z,-4.05
2017-07-30T00:21:10.038Z,-4.05
2017-07-30T00:22:04.149Z,-4.05
2017-07-30T00:23:04.180Z,-4.05
2017-07-30T00:23:59.147Z,-4.05
2017-07-30T00:24:59.367Z,-4.05
2017-07-30T00:25:59.547Z,-4.05
2017-07-30T00:26:59.174Z,-4.05
2017-07-30T00:27:53.289Z,-4.05
2017-07-30T00:28:54.370Z,-4.05
2017-07-30T00:29:49.379Z,-4.04
2017-07-30T00:30:44.793Z,-4.04
2017-07-30T00:31:39.464Z,-4.04
2017-07-30T00:32:33.820Z,-4.04
2017-07-30T00:33:33.445Z,-4.04
2017-07-30T00:34:34.538Z,-4.04
2017-07-30T00:35:35.941Z,-4.04
2017-07-30T00:36:35.996Z,-4.04
2017-07-30T00:37:36.999Z,-4.04
2017-07-30T00:38:38.061Z,-4.04
2017-07-30T00:39:32.058Z,-4.04
2017-07-30T00:40:32.062Z,-4.04
2017-07-30T00:41:27.052Z,-4.04
2017-07-30T00:42:22.178Z,-4.04
2017-07-30T00:43:21.845Z,-4.04
2017-07-30T00:44:16.901Z,-4.04
2017-07-30T00:45:12.200Z,-4.04
2017-07-30T00:46:12.146Z,-4.04
2017-07-30T00:47:07.200Z,-4.04
2017-07-30T00:48:02.151Z,-4.04
2017-07-30T00:48:57.054Z,-4.04
2017-07-30T00:49:51.492Z,-4.04
2017-07-30T00:50:45.582Z,-4.04
2017-07-30T00:51:45.332Z,-4.04
2017-07-30T00:52:39.373Z,-4.04
2017-07-30T00:53:33.405Z,-4.04
2017-07-30T00:54:27.679Z,-4.04
2017-07-30T00:55:27.643Z,-4.04
2017-07-30T00:56:27.469Z,-4.04
2017-07-30T00:57:21.544Z,-4.04
2017-07-30T00:58:16.789Z,-4.04
2017-07-30T00:59:16.613Z,-4.04
2017-07-30T01:00:11.583Z,-4.05
2017-07-30T01:01:07.003Z,-4.05
2017-07-30T01:02:07.623Z,-4.05
2017-07-30T01:03:07.788Z,-4.05
2017-07-30T01:04:07.747Z,-4.05
2017-07-30T01:05:02.832Z,-4.05
2017-07-30T01:05:56.969Z,-4.05
2017-07-30T01:06:57.153Z,-4.05
2017-07-30T01:07:52.195Z,-4.05
2017-07-30T01:08:51.954Z,-4.05
2017-07-30T01:09:45.967Z,-4.05
2017-07-30T01:10:46.457Z,-4.05
2017-07-30T01:11:41.370Z,-4.05
2017-07-30T01:12:36.423Z,-4.05
2017-07-30T01:13:36.478Z,-4.05
2017-07-30T01:14:31.482Z,-4.05
2017-07-30T01:15:26.471Z,-4.05
2017-07-30T01:16:27.715Z,-4.05
2017-07-30T01:17:27.307Z,-4.05
2017-07-30T01:18:22.416Z,-4.05
2017-07-30T01:19:10.713Z,-4.05
2017-07-30T01:19:58.544Z,-4.05
2017-07-30T01:20:47.703Z,-4.05
2017-07-30T01:21:36.649Z,-4.05
2017-07-30T01:22:24.639Z,-4.05
2017-07-30T01:23:13.703Z,-4.05
2017-07-30T01:24:13.702Z,-4.05
2017-07-30T01:25:08.749Z,-4.05
2017-07-30T01:26:03.118Z,-4.05
2017-07-30T01:27:02.995Z,-4.05
2017-07-30T01:28:03.144Z,-4.05
2017-07-30T01:28:58.083Z,-4.05
2017-07-30T01:29:53.093Z,-4.05
2017-07-30T01:30:53.307Z,-4.05
2017-07-30T01:31:48.330Z,-4.05
2017-07-30T01:32:43.371Z,-4.05
2017-07-30T01:33:43.417Z,-4.05
2017-07-30T01:34:38.262Z,-4.05
2017-07-30T01:35:33.219Z,-4.05
2017-07-30T01:36:34.154Z,-4.05
2017-07-30T01:37:34.227Z,-4.05
2017-07-30T01:38:34.475Z,-4.05
2017-07-30T01:39:34.300Z,-4.05
2017-07-30T01:40:28.543Z,-4.05
2017-07-30T01:41:16.736Z,-4.05
2017-07-30T01:42:04.738Z,-4.05
2017-07-30T01:42:53.702Z,-4.05
2017-07-30T01:43:41.549Z,-4.05
2017-07-30T01:44:30.553Z,-4.05
2017-07-30T01:45:18.641Z,-4.05
2017-07-30T01:46:06.808Z,-4.05
2017-07-30T01:46:55.704Z,-4.05
2017-07-30T01:47:43.789Z,-4.05
2017-07-30T01:48:31.893Z,-4.05
2017-07-30T01:49:20.936Z,-4.05
2017-07-30T01:50:09.164Z,-4.05
2017-07-30T01:50:57.214Z,-4.05
2017-07-30T01:51:44.960Z,-4.05
2017-07-30T01:52:33.999Z,-4.05
2017-07-30T01:53:22.167Z,-4.05
2017-07-30T01:54:10.195Z,-4.05
2017-07-30T01:54:59.514Z,-4.05
2017-07-30T01:55:47.554Z,-4.05
2017-07-30T01:56:36.489Z,-4.05
2017-07-30T01:57:24.413Z,-4.05
2017-07-30T01:58:12.541Z,-4.05
2017-07-30T01:59:00.393Z,-4.05
2017-07-30T01:59:48.727Z,-4.05
2017-07-30T02:00:37.936Z,-4.05
2017-07-30T02:01:25.996Z,-4.05
2017-07-30T02:02:14.544Z,-4.05
2017-07-30T02:03:02.697Z,-4.05
2017-07-30T02:03:51.730Z,-4.05
2017-07-30T02:04:39.729Z,-4.05
2017-07-30T02:05:33.980Z,-4.05
2017-07-30T02:06:22.156Z,-4.05
2017-07-30T02:07:09.850Z,-4.05
2017-07-30T02:07:57.941Z,-4.05
2017-07-30T02:08:45.946Z,-4.05
2017-07-30T02:09:35.003Z,-4.05
2017-07-30T02:10:23.183Z,-4.05
2017-07-30T02:11:11.397Z,-4.05
2017-07-30T02:12:05.341Z,-4.05
2017-07-30T02:12:54.138Z,-4.05
2017-07-30T02:13:48.375Z,-4.05
2017-07-30T02:14:36.455Z,-4.05
2017-07-30T02:15:25.579Z,-4.05
2017-07-30T02:16:14.652Z,-4.05
2017-07-30T02:17:02.699Z,-4.05
2017-07-30T02:17:51.816Z,-4.05
2017-07-30T02:18:45.788Z,-4.05
2017-07-30T02:19:33.820Z,-4.05
2017-07-30T02:20:21.538Z,-4.05
2017-07-30T02:21:09.791Z,-4.05
2017-07-30T02:21:58.683Z,-4.05
2017-07-30T02:22:46.719Z,-4.05
2017-07-30T02:23:34.805Z,-4.05
2017-07-30T02:24:28.811Z,-4.05
2017-07-30T02:25:16.934Z,-4.05
2017-07-30T02:26:11.904Z,-4.05
2017-07-30T02:27:00.171Z,-4.05
2017-07-30T02:27:55.048Z,-4.05
2017-07-30T02:28:43.009Z,-4.05
2017-07-30T02:29:31.092Z,-4.05
2017-07-30T02:30:20.155Z,-4.05
2017-07-30T02:31:08.526Z,-4.05
2017-07-30T02:31:56.474Z,-4.05
2017-07-30T02:32:45.390Z,-4.05
2017-07-30T02:33:33.278Z,-4.05
2017-07-30T02:34:22.439Z,-4.05
2017-07-30T02:35:10.345Z,-4.06
2017-07-30T02:36:04.856Z,-4.06
2017-07-30T02:36:53.566Z,-4.05
2017-07-30T02:37:42.932Z,-4.05
2017-07-30T02:38:36.554Z,-4.05
2017-07-30T02:39:25.779Z,-4.06
2017-07-30T02:40:31.724Z,-4.06
2017-07-30T02:41:27.282Z,-4.06
2017-07-30T02:42:26.647Z,-4.05
2017-07-30T02:43:20.716Z,-4.05
2017-07-30T02:44:20.901Z,-4.06
2017-07-30T02:45:15.849Z,-4.06
2017-07-30T02:46:11.120Z,-4.06
2017-07-30T02:47:10.887Z,-4.06
2017-07-30T02:48:06.202Z,-4.06
2017-07-30T02:49:00.959Z,-4.06
2017-07-30T02:50:01.243Z,-4.06
2017-07-30T02:50:56.375Z,-4.06
2017-07-30T02:51:51.443Z,-4.06
2017-07-30T02:52:52.316Z,-4.06
2017-07-30T02:53:52.179Z,-4.06
2017-07-30T02:54:52.414Z,-4.06
2017-07-30T02:55:52.521Z,-4.06
2017-07-30T02:56:53.437Z,-4.06
2017-07-30T02:57:54.629Z,-4.06
2017-07-30T02:58:48.427Z,-4.06
2017-07-30T02:59:48.739Z,-4.06
2017-07-30T03:00:43.636Z,-4.06
2017-07-30T03:01:38.457Z,-4.06
2017-07-30T03:02:38.793Z,-4.06
2017-07-30T03:03:38.535Z,-4.05
2017-07-30T03:04:38.657Z,-4.05
2017-07-30T03:05:33.637Z,-4.05
2017-07-30T03:06:33.744Z,-4.05
2017-07-30T03:07:27.743Z,-4.05
2017-07-30T03:08:28.866Z,-4.05
2017-07-30T03:09:29.844Z,-4.05
2017-07-30T03:10:24.921Z,-4.05
2017-07-30T03:11:18.892Z,-4.05
2017-07-30T03:12:18.863Z,-4.05
2017-07-30T03:13:14.273Z,-4.05
2017-07-30T03:14:14.162Z,-4.05
2017-07-30T03:15:08.008Z,-4.06
2017-07-30T03:16:08.332Z,-4.06
2017-07-30T03:17:03.253Z,-4.06
2017-07-30T03:17:58.200Z,-4.06
2017-07-30T03:18:59.224Z,-4.06
2017-07-30T03:20:00.438Z,-4.06
2017-07-30T03:20:55.622Z,-4.06
2017-07-30T03:21:49.378Z,-4.06
2017-07-30T03:22:50.290Z,-4.06
2017-07-30T03:23:50.744Z,-4.06
2017-07-30T03:24:50.723Z,-4.06
2017-07-30T03:25:50.695Z,-4.06
2017-07-30T03:26:51.589Z,-4.06
2017-07-30T03:27:52.570Z,-4.06
2017-07-30T03:28:52.594Z,-4.06
2017-07-30T03:29:59.596Z,-4.06
2017-07-30T03:30:59.649Z,-4.06
2017-07-30T03:32:05.685Z,-4.06
2017-07-30T03:33:00.652Z,-4.06
2017-07-30T03:34:00.816Z,-4.06
2017-07-30T03:34:55.754Z,-4.06
2017-07-30T03:35:50.854Z,-4.06
2017-07-30T03:36:50.883Z,-4.06
2017-07-30T03:37:45.910Z,-4.06
2017-07-30T03:38:41.253Z,-4.06
2017-07-30T03:39:41.995Z,-4.06
2017-07-30T03:40:42.336Z,-4.06
2017-07-30T03:41:42.062Z,-4.06
2017-07-30T03:42:42.494Z,-4.06
2017-07-30T03:43:42.139Z,-4.06
2017-07-30T03:44:43.304Z,-4.06
2017-07-30T03:45:43.584Z,-4.06
2017-07-30T03:46:44.362Z,-4.06
2017-07-30T03:47:38.462Z,-4.06
2017-07-30T03:48:38.364Z,-4.06
2017-07-30T03:49:33.592Z,-4.06
2017-07-30T03:50:28.724Z,-4.06
2017-07-30T03:51:17.415Z,-4.06
2017-07-30T03:52:06.581Z,-4.06
2017-07-30T03:52:54.588Z,-4.06
2017-07-30T03:53:43.756Z,-4.06
2017-07-30T03:54:37.618Z,-4.06
2017-07-30T03:55:37.685Z,-4.06
2017-07-30T03:56:37.685Z,-4.06
2017-07-30T03:57:37.657Z,-4.06
2017-07-30T03:58:38.063Z,-4.06
2017-07-30T03:59:37.771Z,-4.06
2017-07-30T04:00:38.901Z,-4.06
2017-07-30T04:01:39.929Z,-4.06
2017-07-30T04:02:40.342Z,-4.06
2017-07-30T04:03:40.079Z,-4.06
2017-07-30T04:04:40.159Z,-4.06
2017-07-30T04:05:40.169Z,-4.06
2017-07-30T04:06:34.318Z,-4.06
2017-07-30T04:07:34.374Z,-4.06
2017-07-30T04:08:29.394Z,-4.06
2017-07-30T04:09:24.440Z,-4.06
2017-07-30T04:10:24.485Z,-4.06
2017-07-30T04:11:19.550Z,-4.06
2017-07-30T04:12:14.508Z,-4.06
2017-07-30T04:13:08.614Z,-4.06
2017-07-30T04:14:08.650Z,-4.06
2017-07-30T04:15:03.747Z,-4.06
2017-07-30T04:16:09.739Z,-4.06
2017-07-30T04:17:04.872Z,-4.06
2017-07-30T04:17:58.814Z,-4.06
2017-07-30T04:18:58.960Z,-4.06
2017-07-30T04:19:53.920Z,-4.06
2017-07-30T04:20:47.971Z,-4.06
2017-07-30T04:21:42.032Z,-4.06
2017-07-30T04:22:36.005Z,-4.06
2017-07-30T04:23:37.025Z,-4.06
2017-07-30T04:24:31.039Z,-4.06
2017-07-30T04:25:25.208Z,-4.06
2017-07-30T04:26:13.136Z,-4.06
2017-07-30T04:27:02.256Z,-4.06
2017-07-30T04:27:56.243Z,-4.06
2017-07-30T04:28:50.377Z,-4.06
2017-07-30T04:29:39.433Z,-4.06
2017-07-30T04:30:27.414Z,-4.06
2017-07-30T04:31:16.529Z,-4.06
2017-07-30T04:32:10.586Z,-4.06
2017-07-30T04:33:05.534Z,-4.06
2017-07-30T04:34:05.578Z,-4.06
2017-07-30T04:34:59.624Z,-4.06
2017-07-30T04:35:48.684Z,-4.06
2017-07-30T04:36:37.715Z,-4.06
2017-07-30T04:37:26.802Z,-4.06
2017-07-30T04:38:15.880Z,-4.06
2017-07-30T04:39:09.814Z,-4.06
2017-07-30T04:40:04.880Z,-4.06
2017-07-30T04:40:58.914Z,-4.06
2017-07-30T04:41:53.922Z,-4.06
2017-07-30T04:42:42.004Z,-4.06
2017-07-30T04:43:30.812Z,-4.06
2017-07-30T04:44:18.925Z,-4.06
2017-07-30T04:45:07.099Z,-4.06
2017-07-30T04:46:07.947Z,-4.06
2017-07-30T04:47:02.058Z,-4.06
2017-07-30T04:47:56.181Z,-4.06
2017-07-30T04:48:51.237Z,-4.06
2017-07-30T04:49:40.163Z,-4.06
2017-07-30T04:50:28.375Z,-4.06
2017-07-30T04:51:17.486Z,-4.06
2017-07-30T04:52:06.246Z,-4.06
2017-07-30T04:53:07.476Z,-4.05
2017-07-30T04:53:56.631Z,-4.05
2017-07-30T04:54:50.377Z,-4.05
2017-07-30T04:55:38.658Z,-4.05
2017-07-30T04:56:32.538Z,-4.05
2017-07-30T04:57:20.626Z,-4.05
2017-07-30T04:58:08.625Z,-4.05
2017-07-30T04:59:02.599Z,-4.05
2017-07-30T04:59:50.731Z,-4.05
2017-07-30T05:00:51.744Z,-4.05
2017-07-30T05:01:52.972Z,-4.05
2017-07-30T05:02:52.823Z,-4.05
2017-07-30T05:03:59.162Z,-4.05
2017-07-30T05:04:53.913Z,-4.05
2017-07-30T05:05:48.173Z,-4.05
2017-07-30T05:06:47.834Z,-4.05
2017-07-30T05:07:43.055Z,-4.05
2017-07-30T05:08:38.256Z,-4.05
2017-07-30T05:09:38.200Z,-4.05
2017-07-30T05:10:33.185Z,-4.05
2017-07-30T05:11:28.158Z,-4.05
2017-07-30T05:12:17.288Z,-4.05
2017-07-30T05:13:05.548Z,-4.05
2017-07-30T05:13:53.553Z,-4.05
2017-07-30T05:14:47.655Z,-4.05
2017-07-30T05:15:47.754Z,-4.05
2017-07-30T05:16:42.740Z,-4.05
2017-07-30T05:17:42.804Z,-4.05
2017-07-30T05:18:43.717Z,-4.05
2017-07-30T05:19:43.776Z,-4.05
2017-07-30T05:20:44.003Z,-4.05
2017-07-30T05:21:43.951Z,-4.05
2017-07-30T05:22:43.875Z,-4.05
2017-07-30T05:23:43.961Z,-4.05
2017-07-30T05:24:33.031Z,-4.04
2017-07-30T05:25:21.068Z,-4.04
2017-07-30T05:26:09.057Z,-4.04
2017-07-30T05:26:56.915Z,-4.04
2017-07-30T05:27:51.092Z,-4.04
2017-07-30T05:28:40.254Z,-4.04
2017-07-30T05:29:29.419Z,-4.04
2017-07-30T05:30:18.304Z,-4.04
2017-07-30T05:31:12.483Z,-4.04
2017-07-30T05:32:07.475Z,-4.04
2017-07-30T05:33:01.563Z,-4.04
2017-07-30T05:33:50.577Z,-4.04
2017-07-30T05:34:51.662Z,-4.04
2017-07-30T05:35:40.631Z,-4.04
2017-07-30T05:36:34.705Z,-4.04
2017-07-30T05:37:23.888Z,-4.04
2017-07-30T05:38:12.790Z,-4.04
2017-07-30T05:39:00.799Z,-4.04
2017-07-30T05:39:49.896Z,-4.04
2017-07-30T05:40:37.994Z,-4.04
2017-07-30T05:41:27.003Z,-4.04
2017-07-30T05:42:16.132Z,-4.03
2017-07-30T05:43:10.058Z,-4.03
2017-07-30T05:44:10.132Z,-4.03
2017-07-30T05:45:04.231Z,-4.03
2017-07-30T05:45:58.180Z,-4.03
2017-07-30T05:46:52.281Z,-4.03
2017-07-30T05:47:53.397Z,-4.03
2017-07-30T05:48:47.350Z,-4.03
2017-07-30T05:49:47.373Z,-4.03
2017-07-30T05:50:36.415Z,-4.03
2017-07-30T05:51:30.535Z,-4.03
2017-07-30T05:52:30.539Z,-4.03
2017-07-30T05:53:25.594Z,-4.03
2017-07-30T05:54:13.612Z,-4.03
2017-07-30T05:55:13.762Z,-4.03
2017-07-30T05:56:07.747Z,-4.03
2017-07-30T05:57:01.733Z,-4.03
2017-07-30T05:57:55.743Z,-4.03
2017-07-30T05:58:44.892Z,-4.03
2017-07-30T05:59:39.945Z,-4.02
2017-07-30T06:00:27.995Z,-4.02
2017-07-30T06:01:23.141Z,-4.03
2017-07-30T06:02:12.115Z,-4.02
2017-07-30T06:03:06.035Z,-4.02
2017-07-30T06:04:06.468Z,-4.02
2017-07-30T06:05:00.250Z,-4.02
2017-07-30T06:05:49.300Z,-4.02
2017-07-30T06:06:38.326Z,-4.02
2017-07-30T06:07:38.372Z,-4.02
2017-07-30T06:08:26.343Z,-4.02
2017-07-30T06:09:20.474Z,-4.02
2017-07-30T06:10:21.482Z,-4.02
2017-07-30T06:11:15.518Z,-4.02
2017-07-30T06:12:03.553Z,-4.02
2017-07-30T06:12:52.603Z,-4.02
2017-07-30T06:13:52.782Z,-4.02
2017-07-30T06:14:41.783Z,-4.02
2017-07-30T06:15:41.743Z,-4.02
2017-07-30T06:16:41.877Z,-4.02
2017-07-30T06:17:36.873Z,-4.02
2017-07-30T06:18:37.009Z,-4.02
2017-07-30T06:19:26.023Z,-4.02
2017-07-30T06:20:15.046Z,-4.02
2017-07-30T06:21:04.126Z,-4.02
2017-07-30T06:21:58.080Z,-4.02
2017-07-30T06:22:58.189Z,-4.02
2017-07-30T06:23:53.225Z,-4.02
2017-07-30T06:24:47.208Z,-4.02
2017-07-30T06:25:36.297Z,-4.02
2017-07-30T06:26:30.040Z,-4.02
2017-07-30T06:27:19.185Z,-4.02
2017-07-30T06:28:13.176Z,-4.02
2017-07-30T06:29:13.266Z,-4.02
2017-07-30T06:30:13.368Z,-4.02
2017-07-30T06:31:08.525Z,-4.02
2017-07-30T06:32:08.817Z,-4.01
2017-07-30T06:32:57.856Z,-4.01
2017-07-30T06:33:51.610Z,-4.01
2017-07-30T06:34:46.750Z,-4.00
2017-07-30T06:35:40.785Z,-4.00
2017-07-30T06:36:34.802Z,-4.01
2017-07-30T06:37:23.221Z,-4.01
2017-07-30T06:38:23.272Z,-4.00
2017-07-30T06:39:12.435Z,-4.01
2017-07-30T06:40:07.419Z,-4.00
2017-07-30T06:41:02.558Z,-4.01
2017-07-30T06:41:51.701Z,-4.01
2017-07-30T06:42:46.708Z,-4.01
2017-07-30T06:43:35.704Z,-4.01
2017-07-30T06:44:24.769Z,-4.01
2017-07-30T06:45:24.860Z,-4.01
2017-07-30T06:46:19.000Z,-4.01
2017-07-30T06:47:13.001Z,-4.00
2017-07-30T06:48:02.066Z,-4.00
2017-07-30T06:48:57.254Z,-4.00
2017-07-30T06:49:52.356Z,-4.00
2017-07-30T06:50:47.390Z,-4.00
2017-07-30T06:51:47.365Z,-4.00
2017-07-30T06:52:42.540Z,-4.01
2017-07-30T06:53:36.488Z,-4.01
2017-07-30T06:54:25.577Z,-4.01
2017-07-30T06:55:19.713Z,-4.02
2017-07-30T06:56:14.737Z,-4.02
2017-07-30T06:57:03.843Z,-4.02
2017-07-30T06:57:53.012Z,-4.02
2017-07-30T06:58:46.946Z,-4.02
2017-07-30T06:59:47.026Z,-4.03
2017-07-30T07:00:47.246Z,-4.02
2017-07-30T07:01:41.264Z,-4.02
2017-07-30T07:02:35.290Z,-4.02
2017-07-30T07:03:30.327Z,-4.02
2017-07-30T07:04:30.442Z,-4.02
2017-07-30T07:05:25.607Z,-4.02
2017-07-30T07:06:25.508Z,-4.03
2017-07-30T07:07:14.626Z,-4.03
2017-07-30T07:08:03.698Z,-4.03
2017-07-30T07:08:57.719Z,-4.03
2017-07-30T07:09:52.806Z,-4.03
2017-07-30T07:10:42.025Z,-4.03
2017-07-30T07:11:30.981Z,-4.03
2017-07-30T07:12:37.067Z,-4.03
2017-07-30T07:13:32.199Z,-4.03
2017-07-30T07:14:21.279Z,-4.03
2017-07-30T07:15:15.230Z,-4.03
2017-07-30T07:16:15.410Z,-4.03
2017-07-30T07:17:15.441Z,-4.03
2017-07-30T07:18:09.427Z,-4.03
2017-07-30T07:19:04.552Z,-4.02
2017-07-30T07:19:58.644Z,-4.03
2017-07-30T07:20:52.695Z,-4.03
2017-07-30T07:21:46.706Z,-4.03
2017-07-30T07:22:46.831Z,-4.02
2017-07-30T07:23:41.947Z,-4.03
2017-07-30T07:24:30.959Z,-4.02
2017-07-30T07:25:26.062Z,-4.02
2017-07-30T07:26:21.089Z,-4.02
2017-07-30T07:27:15.164Z,-4.02
2017-07-30T07:28:09.287Z,-4.02
2017-07-30T07:29:03.348Z,-4.03
2017-07-30T07:29:51.412Z,-4.02
2017-07-30T07:30:40.535Z,-4.03
2017-07-30T07:31:35.516Z,-4.03
2017-07-30T07:32:29.605Z,-4.03
2017-07-30T07:33:17.709Z,-4.03
2017-07-30T07:34:11.823Z,-4.03
2017-07-30T07:35:06.888Z,-4.03
2017-07-30T07:36:07.228Z,-4.02
2017-07-30T07:36:55.960Z,-4.02
2017-07-30T07:37:50.037Z,-4.02
2017-07-30T07:38:50.207Z,-4.02
2017-07-30T07:39:38.249Z,-4.01
2017-07-30T07:40:33.297Z,-4.01
2017-07-30T07:41:33.367Z,-4.00
2017-07-30T07:42:27.434Z,-4.00
2017-07-30T07:43:22.486Z,-4.01
2017-07-30T07:44:11.701Z,-4.01
2017-07-30T07:45:05.755Z,-4.01
2017-07-30T07:46:00.688Z,-4.01
2017-07-30T07:46:55.803Z,-4.01
2017-07-30T07:47:49.929Z,-4.02
2017-07-30T07:48:45.072Z,-4.02
2017-07-30T07:49:34.048Z,-4.03
2017-07-30T07:50:35.136Z,-4.03
2017-07-30T07:51:24.217Z,-4.03
2017-07-30T07:52:24.454Z,-4.03
2017-07-30T07:53:12.362Z,-4.03
2017-07-30T07:54:07.443Z,-4.03
2017-07-30T07:55:01.446Z,-4.03
2017-07-30T07:55:56.533Z,-4.03
2017-07-30T07:56:51.637Z,-4.03
2017-07-30T07:57:45.711Z,-4.03
2017-07-30T07:58:40.744Z,-4.03
2017-07-30T07:59:35.778Z,-4.03
2017-07-30T08:00:29.816Z,-4.03
2017-07-30T08:01:23.916Z,-4.03
2017-07-30T08:02:18.965Z,-4.04
2017-07-30T08:03:13.046Z,-4.04
2017-07-30T08:04:13.123Z,-4.04
2017-07-30T08:05:07.154Z,-4.04
2017-07-30T08:06:07.173Z,-4.04
2017-07-30T08:07:01.266Z,-4.04
2017-07-30T08:07:56.264Z,-4.04
2017-07-30T08:08:50.285Z,-4.04
2017-07-30T08:09:38.388Z,-4.04
2017-07-30T08:10:27.452Z,-4.03
2017-07-30T08:11:16.538Z,-4.03
2017-07-30T08:12:11.528Z,-4.03
2017-07-30T08:13:05.661Z,-4.03
2017-07-30T08:13:54.720Z,-4.03
2017-07-30T08:14:48.723Z,-4.02
2017-07-30T08:15:42.920Z,-4.02
2017-07-30T08:16:36.925Z,-4.01
2017-07-30T08:17:25.993Z,-4.01
2017-07-30T08:18:26.061Z,-4.01
2017-07-30T08:19:20.261Z,-4.01
2017-07-30T08:20:15.273Z,-4.01
2017-07-30T08:21:09.358Z,-4.01
2017-07-30T08:22:03.396Z,-4.02
2017-07-30T08:22:57.463Z,-4.02
2017-07-30T08:23:46.505Z,-4.02
2017-07-30T08:24:41.664Z,-4.02
2017-07-30T08:25:41.659Z,-4.02
2017-07-30T08:26:35.739Z,-4.02
2017-07-30T08:27:24.762Z,-4.03
2017-07-30T08:28:18.907Z,-4.03
2017-07-30T08:29:12.936Z,-4.03
2017-07-30T08:30:07.978Z,-4.03
2017-07-30T08:31:08.041Z,-4.03
2017-07-30T08:32:02.056Z,-4.03
2017-07-30T08:32:56.158Z,-4.02
2017-07-30T08:33:50.235Z,-4.02
2017-07-30T08:34:38.196Z,-4.02
2017-07-30T08:35:32.336Z,-4.02
2017-07-30T08:36:26.438Z,-4.01
2017-07-30T08:37:15.493Z,-4.02
2017-07-30T08:38:10.436Z,-4.02
2017-07-30T08:38:58.519Z,-4.02
2017-07-30T08:39:53.581Z,-4.02
2017-07-30T08:40:47.703Z,-4.02
2017-07-30T08:41:42.820Z,-4.01
2017-07-30T08:42:36.835Z,-4.01
2017-07-30T08:43:30.917Z,-4.01
2017-07-30T08:44:18.982Z,-4.01
2017-07-30T08:45:14.023Z,-4.01
2017-07-30T08:46:08.263Z,-4.01
2017-07-30T08:47:02.224Z,-4.02
2017-07-30T08:47:56.286Z,-4.02
2017-07-30T08:48:57.392Z,-4.02
2017-07-30T08:49:52.542Z,-4.02
2017-07-30T08:50:47.555Z,-4.02
2017-07-30T08:51:47.680Z,-4.02
2017-07-30T08:52:35.721Z,-4.02
2017-07-30T08:53:29.746Z,-4.02
2017-07-30T08:54:18.832Z,-4.02
2017-07-30T08:55:12.970Z,-4.02
2017-07-30T08:56:07.957Z,-4.01
2017-07-30T08:57:14.078Z,-4.01
2017-07-30T08:58:02.206Z,-4.01
2017-07-30T08:58:57.172Z,-4.01
2017-07-30T08:59:57.358Z,-4.01
2017-07-30T09:00:57.300Z,-2.15
2017-07-30T09:01:46.410Z,-4.01
2017-07-30T09:02:41.505Z,-4.02
2017-07-30T09:03:35.611Z,-4.02
2017-07-30T09:04:29.698Z,-4.03
2017-07-30T09:05:24.725Z,-4.03
2017-07-30T09:06:18.768Z,-4.03
2017-07-30T09:07:12.808Z,-4.03
2017-07-30T09:08:13.984Z,-4.03
2017-07-30T09:09:07.961Z,-4.03
2017-07-30T09:10:01.991Z,-4.04
2017-07-30T09:10:56.126Z,-4.04
2017-07-30T09:11:57.172Z,-4.04
2017-07-30T09:12:46.202Z,-4.04
2017-07-30T09:13:35.253Z,-4.04
2017-07-30T09:14:29.367Z,-4.04
2017-07-30T09:15:24.334Z,-4.04
2017-07-30T09:16:18.455Z,-4.04
2017-07-30T09:17:12.467Z,-4.04
2017-07-30T09:18:06.564Z,-4.04
2017-07-30T09:19:06.623Z,-4.04
2017-07-30T09:19:55.682Z,-4.04
2017-07-30T09:20:50.745Z,-4.04
2017-07-30T09:21:44.813Z,-4.04
2017-07-30T09:22:44.930Z,-4.03
2017-07-30T09:23:34.019Z,-4.03
2017-07-30T09:24:34.370Z,-4.03
2017-07-30T09:25:34.041Z,-4.03
2017-07-30T09:26:28.194Z,-4.03
2017-07-30T09:27:23.303Z,-4.03
2017-07-30T09:28:18.393Z,-4.03
2017-07-30T09:29:07.449Z,-4.03
2017-07-30T09:30:07.690Z,-4.02
2017-07-30T09:30:55.526Z,-4.02
2017-07-30T09:31:50.643Z,-4.02
2017-07-30T09:32:45.787Z,-4.02
2017-07-30T09:33:39.766Z,-4.02
2017-07-30T09:34:28.846Z,-4.02
2017-07-30T09:35:28.993Z,-4.02
2017-07-30T09:36:29.123Z,-4.02
2017-07-30T09:37:18.116Z,-4.01
2017-07-30T09:38:18.124Z,0.66
2017-07-30T09:39:18.163Z,-4.00
2017-07-30T09:40:18.289Z,3.90
2017-07-30T09:41:12.449Z,12.23
2017-07-30T09:42:07.399Z,17.73
2017-07-30T09:43:02.550Z,34.57
2017-07-30T09:43:56.601Z,32.23
2017-07-30T09:44:51.639Z,21.31
2017-07-30T09:45:39.725Z,29.92
2017-07-30T09:46:40.199Z,37.84
2017-07-30T09:47:40.924Z,25.11
2017-07-30T09:48:35.977Z,37.68
2017-07-30T09:49:25.103Z,39.97
2017-07-30T09:50:14.225Z,28.33
2017-07-30T09:51:14.145Z,40.56
2017-07-30T09:52:14.648Z,37.83
2017-07-30T09:53:08.409Z,37.64
2017-07-30T09:54:02.391Z,21.29
2017-07-30T09:54:51.565Z,12.49
2017-07-30T09:55:40.619Z,5.73
2017-07-30T09:56:40.657Z,17.45
2017-07-30T09:57:41.054Z,-1.67
2017-07-30T09:58:40.768Z,1.05
2017-07-30T09:59:29.901Z,7.03
2017-07-30T10:00:17.982Z,8.35
2017-07-30T10:01:13.054Z,-4.01
2017-07-30T10:02:07.154Z,-4.01
2017-07-30T10:03:01.383Z,-3.04
2017-07-30T10:03:55.353Z,11.66
2017-07-30T10:04:44.318Z,-4.01
2017-07-30T10:05:38.488Z,9.90
2017-07-30T10:06:33.557Z,10.06
2017-07-30T10:07:28.640Z,21.42
2017-07-30T10:08:28.654Z,1.07
2017-07-30T10:09:23.721Z,19.17
2017-07-30T10:10:18.724Z,20.24
2017-07-30T10:11:07.923Z,20.73
2017-07-30T10:11:56.925Z,28.18
2017-07-30T10:12:51.043Z,26.22
2017-07-30T10:13:45.146Z,28.26
2017-07-30T10:14:39.199Z,27.39
2017-07-30T10:15:34.358Z,31.17
2017-07-30T10:16:28.367Z,34.11
2017-07-30T10:17:17.508Z,26.69
2017-07-30T10:18:17.524Z,31.32
2017-07-30T10:19:12.730Z,35.82
2017-07-30T10:20:01.674Z,39.29
2017-07-30T10:20:50.822Z,31.79
2017-07-30T10:21:44.882Z,40.04
2017-07-30T10:22:39.901Z,34.82
2017-07-30T10:23:40.011Z,36.96
2017-07-30T10:24:34.057Z,39.02
2017-07-30T10:25:29.079Z,27.10
2017-07-30T10:26:18.253Z,28.80
2017-07-30T10:27:12.344Z,23.98
2017-07-30T10:28:06.365Z,30.78
2017-07-30T10:29:01.472Z,23.84
2017-07-30T10:29:55.467Z,21.81
2017-07-30T10:30:50.637Z,34.11
2017-07-30T10:31:45.721Z,14.24
2017-07-30T10:32:39.719Z,20.33
2017-07-30T10:33:33.922Z,15.50
2017-07-30T10:34:27.908Z,21.35
2017-07-30T10:35:17.213Z,15.55
2017-07-30T10:36:06.061Z,24.24
2017-07-30T10:37:06.092Z,11.73
2017-07-30T10:37:55.188Z,5.85
2017-07-30T10:38:55.350Z,-4.02
2017-07-30T10:39:50.312Z,-4.02
2017-07-30T10:40:39.460Z,-4.02
2017-07-30T10:41:28.539Z,7.39
2017-07-30T10:42:23.549Z,-0.57
2017-07-30T10:43:18.568Z,-1.37
2017-07-30T10:44:07.679Z,-4.02
2017-07-30T10:45:07.742Z,-4.02
2017-07-30T10:46:02.883Z,-1.05
2017-07-30T10:46:56.945Z,-4.02
2017-07-30T10:47:50.889Z,-4.02
2017-07-30T10:48:52.046Z,0.57
2017-07-30T10:49:52.055Z,2.71
2017-07-30T10:50:47.206Z,10.99
2017-07-30T10:51:36.265Z,21.79
2017-07-30T10:52:25.332Z,33.48
2017-07-30T10:53:25.353Z,27.53
2017-07-30T10:54:14.517Z,35.22
2017-07-30T10:55:08.582Z,26.91
2017-07-30T10:56:03.661Z,28.86
2017-07-30T10:56:58.745Z,38.99
2017-07-30T10:57:52.814Z,20.05
2017-07-30T10:58:47.880Z,35.95
2017-07-30T10:59:41.927Z,28.76
2017-07-30T11:00:37.037Z,36.66
2017-07-30T11:01:26.174Z,30.28
2017-07-30T11:02:15.287Z,40.38
2017-07-30T11:03:09.313Z,34.92
2017-07-30T11:03:58.330Z,33.16
2017-07-30T11:04:46.334Z,32.82
2017-07-30T11:05:40.504Z,29.11
2017-07-30T11:06:35.708Z,38.27
2017-07-30T11:07:29.665Z,41.55
2017-07-30T11:08:23.739Z,34.71
2017-07-30T11:09:11.905Z,45.57
2017-07-30T11:10:11.841Z,42.70
2017-07-30T11:11:05.957Z,41.09
2017-07-30T11:12:06.020Z,39.33
2017-07-30T11:13:06.141Z,39.73
2017-07-30T11:14:06.215Z,34.22
2017-07-30T11:14:55.324Z,38.96
2017-07-30T11:15:55.659Z,40.38
2017-07-30T11:16:49.472Z,45.80
2017-07-30T11:17:43.481Z,34.14
2017-07-30T11:18:32.695Z,32.88
2017-07-30T11:19:27.726Z,24.50
2017-07-30T11:20:27.791Z,41.84
2017-07-30T11:21:22.788Z,44.82
2017-07-30T11:22:11.954Z,39.13
2017-07-30T11:23:00.970Z,31.27
2017-07-30T11:23:55.109Z,25.67
2017-07-30T11:24:44.242Z,35.97
2017-07-30T11:25:38.205Z,37.57
2017-07-30T11:26:32.416Z,43.66
2017-07-30T11:27:26.370Z,35.65
2017-07-30T11:28:21.545Z,41.33
2017-07-30T11:29:15.592Z,29.13
2017-07-30T11:30:09.707Z,35.17
2017-07-30T11:31:04.817Z,37.33
2017-07-30T11:31:58.843Z,34.48
2017-07-30T11:32:52.897Z,26.62
2017-07-30T11:33:40.958Z,41.75
2017-07-30T11:34:36.034Z,38.08
2017-07-30T11:35:25.241Z,46.39
2017-07-30T11:36:20.300Z,44.26
2017-07-30T11:37:09.256Z,40.18
2017-07-30T11:38:04.426Z,40.30
2017-07-30T11:38:58.440Z,42.78
2017-07-30T11:39:53.640Z,46.97
2017-07-30T11:40:47.644Z,45.40